sensor_id;sensor_type;location;lat;lon;timestamp;P1;durP1;ratioP1;P2;durP2;ratioP2
44989;SDS011;30723;51.206;3.326;2022-10-16T00:00:52;4.68;;;2.20;;
44989;SDS011;30723;51.206;3.326;2022-10-16T00:03:18;9.43;;;2.80;;
44989;SDS011;30723;51.206;3.326;2022-10-16T00:05:44;3.70;;;2.72;;
44989;SDS011;30723;51.206;3.326;2022-10-16T00:08:10;4.68;;;2.30;;
44989;SDS011;30723;51.206;3.326;2022-10-16T00:10:37;5.15;;;2.60;;
44989;SDS011;30723;51.206;3.326;2022-10-16T00:13:03;4.13;;;2.40;;
44989;SDS011;30723;51.206;3.326;2022-10-16T00:15:30;2.92;;;2.38;;
44989;SDS011;30723;51.206;3.326;2022-10-16T00:17:57;6.80;;;2.40;;
44989;SDS011;30723;51.206;3.326;2022-10-16T00:20:23;4.18;;;2.47;;
44989;SDS011;30723;51.206;3.326;2022-10-16T00:22:49;3.17;;;1.88;;
44989;SDS011;30723;51.206;3.326;2022-10-16T00:25:15;2.85;;;2.17;;
44989;SDS011;30723;51.206;3.326;2022-10-16T00:27:40;3.08;;;1.90;;
44989;SDS011;30723;51.206;3.326;2022-10-16T00:30:06;3.47;;;2.22;;
44989;SDS011;30723;51.206;3.326;2022-10-16T00:32:33;2.97;;;1.92;;
44989;SDS011;30723;51.206;3.326;2022-10-16T00:34:59;5.65;;;2.20;;
44989;SDS011;30723;51.206;3.326;2022-10-16T00:37:24;3.30;;;2.05;;
44989;SDS011;30723;51.206;3.326;2022-10-16T00:39:50;3.25;;;1.85;;
44989;SDS011;30723;51.206;3.326;2022-10-16T00:42:17;2.20;;;1.95;;
44989;SDS011;30723;51.206;3.326;2022-10-16T00:47:18;5.35;;;2.20;;
44989;SDS011;30723;51.206;3.326;2022-10-16T00:49:59;5.25;;;1.90;;
44989;SDS011;30723;51.206;3.326;2022-10-16T00:52:35;3.28;;;1.88;;
44989;SDS011;30723;51.206;3.326;2022-10-16T00:55:04;6.57;;;2.00;;
44989;SDS011;30723;51.206;3.326;2022-10-16T00:57:31;4.00;;;2.03;;
44989;SDS011;30723;51.206;3.326;2022-10-16T00:59:57;3.08;;;2.28;;
44989;SDS011;30723;51.206;3.326;2022-10-16T01:02:23;3.28;;;2.20;;
44989;SDS011;30723;51.206;3.326;2022-10-16T01:04:51;5.78;;;2.55;;
44989;SDS011;30723;51.206;3.326;2022-10-16T01:12:59;7.30;;;2.55;;
44989;SDS011;30723;51.206;3.326;2022-10-16T01:15:32;6.03;;;2.60;;
44989;SDS011;30723;51.206;3.326;2022-10-16T01:18:13;3.92;;;2.50;;
44989;SDS011;30723;51.206;3.326;2022-10-16T01:29:34;4.40;;;2.20;;
44989;SDS011;30723;51.206;3.326;2022-10-16T01:32:15;3.35;;;2.00;;
44989;SDS011;30723;51.206;3.326;2022-10-16T01:35:07;6.88;;;2.38;;
44989;SDS011;30723;51.206;3.326;2022-10-16T01:37:42;5.22;;;2.25;;
44989;SDS011;30723;51.206;3.326;2022-10-16T01:40:11;4.35;;;2.10;;
44989;SDS011;30723;51.206;3.326;2022-10-16T01:42:41;3.58;;;2.08;;
44989;SDS011;30723;51.206;3.326;2022-10-16T01:45:09;8.63;;;2.20;;
44989;SDS011;30723;51.206;3.326;2022-10-16T01:47:38;5.25;;;2.40;;
44989;SDS011;30723;51.206;3.326;2022-10-16T01:50:05;11.02;;;2.38;;
44989;SDS011;30723;51.206;3.326;2022-10-16T01:52:34;6.53;;;2.67;;
44989;SDS011;30723;51.206;3.326;2022-10-16T01:55:02;3.35;;;2.17;;
44989;SDS011;30723;51.206;3.326;2022-10-16T01:57:31;5.05;;;2.22;;
44989;SDS011;30723;51.206;3.326;2022-10-16T02:00:00;8.43;;;2.50;;
44989;SDS011;30723;51.206;3.326;2022-10-16T02:02:32;3.88;;;2.00;;
44989;SDS011;30723;51.206;3.326;2022-10-16T02:05:09;2.53;;;1.77;;
44989;SDS011;30723;51.206;3.326;2022-10-16T02:07:39;5.53;;;1.85;;
44989;SDS011;30723;51.206;3.326;2022-10-16T02:10:07;5.07;;;1.95;;
44989;SDS011;30723;51.206;3.326;2022-10-16T02:12:33;4.05;;;1.80;;
44989;SDS011;30723;51.206;3.326;2022-10-16T02:15:02;3.70;;;1.63;;
44989;SDS011;30723;51.206;3.326;2022-10-16T02:17:28;3.45;;;1.73;;
44989;SDS011;30723;51.206;3.326;2022-10-16T02:19:54;4.35;;;1.52;;
44989;SDS011;30723;51.206;3.326;2022-10-16T02:22:26;4.82;;;2.00;;
44989;SDS011;30723;51.206;3.326;2022-10-16T02:27:33;3.17;;;1.50;;
44989;SDS011;30723;51.206;3.326;2022-10-16T02:32:47;4.82;;;1.52;;
44989;SDS011;30723;51.206;3.326;2022-10-16T02:35:18;2.38;;;1.65;;
44989;SDS011;30723;51.206;3.326;2022-10-16T02:37:46;3.58;;;1.60;;
44989;SDS011;30723;51.206;3.326;2022-10-16T02:40:14;4.03;;;1.52;;
44989;SDS011;30723;51.206;3.326;2022-10-16T02:42:41;4.95;;;1.45;;
44989;SDS011;30723;51.206;3.326;2022-10-16T02:45:07;2.78;;;1.23;;
44989;SDS011;30723;51.206;3.326;2022-10-16T02:47:34;3.83;;;1.63;;
44989;SDS011;30723;51.206;3.326;2022-10-16T02:50:00;4.28;;;1.35;;
44989;SDS011;30723;51.206;3.326;2022-10-16T02:52:26;2.95;;;1.67;;
44989;SDS011;30723;51.206;3.326;2022-10-16T02:54:52;3.60;;;1.33;;
44989;SDS011;30723;51.206;3.326;2022-10-16T02:57:17;4.88;;;1.88;;
44989;SDS011;30723;51.206;3.326;2022-10-16T02:59:44;3.22;;;2.10;;
44989;SDS011;30723;51.206;3.326;2022-10-16T03:02:10;3.22;;;1.63;;
44989;SDS011;30723;51.206;3.326;2022-10-16T03:04:36;4.90;;;1.60;;
44989;SDS011;30723;51.206;3.326;2022-10-16T03:07:02;4.95;;;1.48;;
44989;SDS011;30723;51.206;3.326;2022-10-16T03:09:28;4.20;;;1.75;;
44989;SDS011;30723;51.206;3.326;2022-10-16T03:11:54;4.15;;;1.65;;
44989;SDS011;30723;51.206;3.326;2022-10-16T03:14:20;5.15;;;1.90;;
44989;SDS011;30723;51.206;3.326;2022-10-16T03:16:45;4.85;;;1.65;;
44989;SDS011;30723;51.206;3.326;2022-10-16T03:19:11;4.05;;;1.38;;
44989;SDS011;30723;51.206;3.326;2022-10-16T03:21:37;7.32;;;1.67;;
44989;SDS011;30723;51.206;3.326;2022-10-16T03:24:03;21.52;;;2.25;;
44989;SDS011;30723;51.206;3.326;2022-10-16T03:26:29;6.10;;;1.75;;
44989;SDS011;30723;51.206;3.326;2022-10-16T03:28:54;10.32;;;1.80;;
44989;SDS011;30723;51.206;3.326;2022-10-16T03:31:20;5.15;;;1.90;;
44989;SDS011;30723;51.206;3.326;2022-10-16T03:33:46;2.47;;;1.50;;
44989;SDS011;30723;51.206;3.326;2022-10-16T03:36:11;3.63;;;1.73;;
44989;SDS011;30723;51.206;3.326;2022-10-16T03:38:37;6.97;;;1.67;;
44989;SDS011;30723;51.206;3.326;2022-10-16T03:41:03;3.05;;;1.40;;
44989;SDS011;30723;51.206;3.326;2022-10-16T03:43:29;9.30;;;2.17;;
44989;SDS011;30723;51.206;3.326;2022-10-16T03:45:54;5.70;;;1.80;;
44989;SDS011;30723;51.206;3.326;2022-10-16T03:48:20;5.00;;;1.80;;
44989;SDS011;30723;51.206;3.326;2022-10-16T03:50:46;4.75;;;2.00;;
44989;SDS011;30723;51.206;3.326;2022-10-16T03:53:13;5.13;;;1.60;;
44989;SDS011;30723;51.206;3.326;2022-10-16T03:55:42;2.80;;;1.40;;
44989;SDS011;30723;51.206;3.326;2022-10-16T03:58:08;5.20;;;1.48;;
44989;SDS011;30723;51.206;3.326;2022-10-16T04:00:34;4.55;;;1.60;;
44989;SDS011;30723;51.206;3.326;2022-10-16T04:03:00;4.70;;;1.92;;
44989;SDS011;30723;51.206;3.326;2022-10-16T04:05:26;5.13;;;1.65;;
44989;SDS011;30723;51.206;3.326;2022-10-16T04:07:52;8.63;;;2.00;;
44989;SDS011;30723;51.206;3.326;2022-10-16T04:10:18;2.60;;;1.50;;
44989;SDS011;30723;51.206;3.326;2022-10-16T04:12:44;5.13;;;1.40;;
44989;SDS011;30723;51.206;3.326;2022-10-16T04:15:10;8.23;;;1.42;;
44989;SDS011;30723;51.206;3.326;2022-10-16T04:17:35;4.50;;;1.73;;
44989;SDS011;30723;51.206;3.326;2022-10-16T04:20:01;7.47;;;1.73;;
44989;SDS011;30723;51.206;3.326;2022-10-16T04:22:27;3.20;;;1.23;;
44989;SDS011;30723;51.206;3.326;2022-10-16T04:24:53;10.63;;;1.50;;
44989;SDS011;30723;51.206;3.326;2022-10-16T04:27:19;3.70;;;1.30;;
44989;SDS011;30723;51.206;3.326;2022-10-16T04:29:44;4.15;;;1.40;;
44989;SDS011;30723;51.206;3.326;2022-10-16T04:32:10;5.40;;;1.45;;
44989;SDS011;30723;51.206;3.326;2022-10-16T04:34:36;3.88;;;1.25;;
44989;SDS011;30723;51.206;3.326;2022-10-16T04:37:04;10.60;;;1.50;;
44989;SDS011;30723;51.206;3.326;2022-10-16T04:39:30;4.13;;;1.40;;
44989;SDS011;30723;51.206;3.326;2022-10-16T04:41:56;6.05;;;1.60;;
44989;SDS011;30723;51.206;3.326;2022-10-16T04:44:21;5.40;;;1.33;;
44989;SDS011;30723;51.206;3.326;2022-10-16T04:46:49;3.75;;;1.13;;
44989;SDS011;30723;51.206;3.326;2022-10-16T04:49:15;7.38;;;1.60;;
44989;SDS011;30723;51.206;3.326;2022-10-16T04:51:41;6.22;;;1.48;;
44989;SDS011;30723;51.206;3.326;2022-10-16T04:54:08;3.28;;;1.52;;
44989;SDS011;30723;51.206;3.326;2022-10-16T04:56:34;4.13;;;1.40;;
44989;SDS011;30723;51.206;3.326;2022-10-16T04:59:05;4.63;;;1.38;;
44989;SDS011;30723;51.206;3.326;2022-10-16T05:01:31;5.13;;;1.40;;
44989;SDS011;30723;51.206;3.326;2022-10-16T05:03:56;7.03;;;1.10;;
44989;SDS011;30723;51.206;3.326;2022-10-16T05:06:22;7.57;;;1.20;;
44989;SDS011;30723;51.206;3.326;2022-10-16T05:08:48;6.70;;;1.75;;
44989;SDS011;30723;51.206;3.326;2022-10-16T05:11:13;4.80;;;1.52;;
44989;SDS011;30723;51.206;3.326;2022-10-16T05:13:39;9.25;;;1.40;;
44989;SDS011;30723;51.206;3.326;2022-10-16T05:16:05;5.72;;;1.20;;
44989;SDS011;30723;51.206;3.326;2022-10-16T05:18:31;2.50;;;1.17;;
44989;SDS011;30723;51.206;3.326;2022-10-16T05:20:57;3.63;;;1.35;;
44989;SDS011;30723;51.206;3.326;2022-10-16T05:23:22;6.22;;;1.52;;
44989;SDS011;30723;51.206;3.326;2022-10-16T05:25:52;9.15;;;1.38;;
44989;SDS011;30723;51.206;3.326;2022-10-16T05:28:19;9.68;;;1.40;;
44989;SDS011;30723;51.206;3.326;2022-10-16T05:30:45;5.97;;;1.10;;
44989;SDS011;30723;51.206;3.326;2022-10-16T05:33:11;6.85;;;1.40;;
44989;SDS011;30723;51.206;3.326;2022-10-16T05:35:36;5.13;;;1.77;;
44989;SDS011;30723;51.206;3.326;2022-10-16T05:38:02;6.00;;;1.38;;
44989;SDS011;30723;51.206;3.326;2022-10-16T05:40:28;13.65;;;1.60;;
44989;SDS011;30723;51.206;3.326;2022-10-16T05:42:57;2.60;;;1.13;;
44989;SDS011;30723;51.206;3.326;2022-10-16T05:45:22;6.63;;;1.48;;
44989;SDS011;30723;51.206;3.326;2022-10-16T05:47:48;7.40;;;1.30;;
44989;SDS011;30723;51.206;3.326;2022-10-16T05:50:14;9.00;;;1.30;;
44989;SDS011;30723;51.206;3.326;2022-10-16T05:52:40;4.75;;;1.20;;
44989;SDS011;30723;51.206;3.326;2022-10-16T05:55:05;4.57;;;1.35;;
44989;SDS011;30723;51.206;3.326;2022-10-16T05:57:31;9.35;;;1.30;;
44989;SDS011;30723;51.206;3.326;2022-10-16T05:59:57;5.07;;;1.50;;
44989;SDS011;30723;51.206;3.326;2022-10-16T06:02:23;4.63;;;1.35;;
44989;SDS011;30723;51.206;3.326;2022-10-16T06:04:49;6.22;;;1.35;;
44989;SDS011;30723;51.206;3.326;2022-10-16T06:07:16;6.00;;;1.38;;
44989;SDS011;30723;51.206;3.326;2022-10-16T06:09:42;5.32;;;1.40;;
44989;SDS011;30723;51.206;3.326;2022-10-16T06:12:07;5.82;;;1.92;;
44989;SDS011;30723;51.206;3.326;2022-10-16T06:14:33;4.35;;;1.45;;
44989;SDS011;30723;51.206;3.326;2022-10-16T06:16:59;5.35;;;1.48;;
44989;SDS011;30723;51.206;3.326;2022-10-16T06:19:25;4.10;;;1.30;;
44989;SDS011;30723;51.206;3.326;2022-10-16T06:21:50;9.15;;;1.58;;
44989;SDS011;30723;51.206;3.326;2022-10-16T06:24:16;6.30;;;1.70;;
44989;SDS011;30723;51.206;3.326;2022-10-16T06:26:42;6.10;;;1.65;;
44989;SDS011;30723;51.206;3.326;2022-10-16T06:29:08;5.38;;;1.65;;
44989;SDS011;30723;51.206;3.326;2022-10-16T06:31:34;4.07;;;1.80;;
44989;SDS011;30723;51.206;3.326;2022-10-16T06:33:59;7.25;;;1.95;;
44989;SDS011;30723;51.206;3.326;2022-10-16T06:36:25;7.00;;;1.67;;
44989;SDS011;30723;51.206;3.326;2022-10-16T06:38:52;4.63;;;1.63;;
44989;SDS011;30723;51.206;3.326;2022-10-16T06:41:19;6.85;;;1.67;;
44989;SDS011;30723;51.206;3.326;2022-10-16T06:43:46;3.92;;;1.40;;
44989;SDS011;30723;51.206;3.326;2022-10-16T06:46:13;6.97;;;1.88;;
44989;SDS011;30723;51.206;3.326;2022-10-16T06:48:41;8.70;;;1.60;;
44989;SDS011;30723;51.206;3.326;2022-10-16T06:51:10;8.07;;;1.98;;
44989;SDS011;30723;51.206;3.326;2022-10-16T06:53:39;7.35;;;2.08;;
44989;SDS011;30723;51.206;3.326;2022-10-16T06:56:11;7.55;;;1.75;;
44989;SDS011;30723;51.206;3.326;2022-10-16T06:58:38;6.72;;;1.58;;
44989;SDS011;30723;51.206;3.326;2022-10-16T07:01:04;6.53;;;1.60;;
44989;SDS011;30723;51.206;3.326;2022-10-16T07:03:31;5.93;;;1.60;;
44989;SDS011;30723;51.206;3.326;2022-10-16T07:05:57;5.43;;;1.92;;
44989;SDS011;30723;51.206;3.326;2022-10-16T07:08:27;7.53;;;2.10;;
44989;SDS011;30723;51.206;3.326;2022-10-16T07:11:02;4.00;;;1.33;;
44989;SDS011;30723;51.206;3.326;2022-10-16T07:13:34;10.75;;;1.73;;
44989;SDS011;30723;51.206;3.326;2022-10-16T07:16:07;5.68;;;1.98;;
44989;SDS011;30723;51.206;3.326;2022-10-16T07:18:34;5.47;;;1.67;;
44989;SDS011;30723;51.206;3.326;2022-10-16T07:21:10;7.00;;;1.98;;
44989;SDS011;30723;51.206;3.326;2022-10-16T07:23:40;4.30;;;1.60;;
44989;SDS011;30723;51.206;3.326;2022-10-16T07:26:07;6.55;;;1.80;;
44989;SDS011;30723;51.206;3.326;2022-10-16T07:28:34;7.60;;;1.95;;
44989;SDS011;30723;51.206;3.326;2022-10-16T07:31:01;5.30;;;1.65;;
44989;SDS011;30723;51.206;3.326;2022-10-16T07:33:32;13.68;;;1.90;;
44989;SDS011;30723;51.206;3.326;2022-10-16T07:35:59;6.65;;;1.80;;
44989;SDS011;30723;51.206;3.326;2022-10-16T07:38:25;8.55;;;2.55;;
44989;SDS011;30723;51.206;3.326;2022-10-16T07:41:01;6.57;;;1.67;;
44989;SDS011;30723;51.206;3.326;2022-10-16T07:43:28;4.13;;;1.40;;
44989;SDS011;30723;51.206;3.326;2022-10-16T07:45:55;7.47;;;1.80;;
44989;SDS011;30723;51.206;3.326;2022-10-16T07:48:21;8.23;;;1.50;;
44989;SDS011;30723;51.206;3.326;2022-10-16T07:50:48;4.90;;;1.88;;
44989;SDS011;30723;51.206;3.326;2022-10-16T07:53:14;9.57;;;1.55;;
44989;SDS011;30723;51.206;3.326;2022-10-16T07:55:40;7.07;;;1.80;;
44989;SDS011;30723;51.206;3.326;2022-10-16T07:58:06;8.45;;;1.98;;
44989;SDS011;30723;51.206;3.326;2022-10-16T08:00:32;7.10;;;2.22;;
44989;SDS011;30723;51.206;3.326;2022-10-16T08:02:58;7.50;;;1.95;;
44989;SDS011;30723;51.206;3.326;2022-10-16T08:05:26;8.18;;;1.63;;
44989;SDS011;30723;51.206;3.326;2022-10-16T08:07:55;9.85;;;1.58;;
44989;SDS011;30723;51.206;3.326;2022-10-16T08:10:21;6.53;;;2.03;;
44989;SDS011;30723;51.206;3.326;2022-10-16T08:12:49;6.57;;;1.58;;
44989;SDS011;30723;51.206;3.326;2022-10-16T08:15:16;5.70;;;1.63;;
44989;SDS011;30723;51.206;3.326;2022-10-16T08:17:43;7.63;;;1.63;;
44989;SDS011;30723;51.206;3.326;2022-10-16T08:20:09;8.98;;;1.55;;
44989;SDS011;30723;51.206;3.326;2022-10-16T08:22:35;7.72;;;2.47;;
44989;SDS011;30723;51.206;3.326;2022-10-16T08:25:01;7.75;;;1.88;;
44989;SDS011;30723;51.206;3.326;2022-10-16T08:27:31;11.32;;;2.10;;
44989;SDS011;30723;51.206;3.326;2022-10-16T08:29:57;9.48;;;1.42;;
44989;SDS011;30723;51.206;3.326;2022-10-16T08:32:23;4.63;;;1.42;;
44989;SDS011;30723;51.206;3.326;2022-10-16T08:34:49;7.03;;;1.80;;
44989;SDS011;30723;51.206;3.326;2022-10-16T08:37:14;6.70;;;1.60;;
44989;SDS011;30723;51.206;3.326;2022-10-16T08:39:40;8.27;;;2.15;;
44989;SDS011;30723;51.206;3.326;2022-10-16T08:42:25;10.77;;;2.00;;
44989;SDS011;30723;51.206;3.326;2022-10-16T08:50:31;8.82;;;1.85;;
44989;SDS011;30723;51.206;3.326;2022-10-16T08:53:01;7.97;;;1.63;;
44989;SDS011;30723;51.206;3.326;2022-10-16T08:58:08;12.25;;;1.92;;
44989;SDS011;30723;51.206;3.326;2022-10-16T09:00:38;9.95;;;2.13;;
44989;SDS011;30723;51.206;3.326;2022-10-16T09:14:18;11.18;;;2.05;;
44989;SDS011;30723;51.206;3.326;2022-10-16T09:17:28;11.95;;;1.95;;
44989;SDS011;30723;51.206;3.326;2022-10-16T09:26:09;5.95;;;2.15;;
44989;SDS011;30723;51.206;3.326;2022-10-16T09:28:38;10.65;;;1.95;;
44989;SDS011;30723;51.206;3.326;2022-10-16T09:31:04;13.02;;;2.60;;
44989;SDS011;30723;51.206;3.326;2022-10-16T09:33:33;8.68;;;2.40;;
44989;SDS011;30723;51.206;3.326;2022-10-16T09:36:03;11.82;;;2.20;;
44989;SDS011;30723;51.206;3.326;2022-10-16T09:38:32;13.00;;;2.20;;
44989;SDS011;30723;51.206;3.326;2022-10-16T09:41:01;9.57;;;2.42;;
44989;SDS011;30723;51.206;3.326;2022-10-16T09:43:45;8.00;;;1.90;;
44989;SDS011;30723;51.206;3.326;2022-10-16T09:49:20;11.68;;;2.05;;
44989;SDS011;30723;51.206;3.326;2022-10-16T09:51:51;12.55;;;2.13;;
44989;SDS011;30723;51.206;3.326;2022-10-16T09:54:27;20.33;;;9.65;;
44989;SDS011;30723;51.206;3.326;2022-10-16T09:57:03;20.90;;;9.00;;
44989;SDS011;30723;51.206;3.326;2022-10-16T09:59:30;8.85;;;2.58;;
44989;SDS011;30723;51.206;3.326;2022-10-16T10:02:00;36.67;;;23.90;;
44989;SDS011;30723;51.206;3.326;2022-10-16T10:04:36;14.75;;;2.33;;
44989;SDS011;30723;51.206;3.326;2022-10-16T10:07:05;27.00;;;18.73;;
44989;SDS011;30723;51.206;3.326;2022-10-16T10:09:38;36.85;;;26.63;;
44989;SDS011;30723;51.206;3.326;2022-10-16T10:12:05;37.97;;;27.38;;
44989;SDS011;30723;51.206;3.326;2022-10-16T10:14:43;76.10;;;48.97;;
44989;SDS011;30723;51.206;3.326;2022-10-16T10:17:13;85.97;;;52.10;;
44989;SDS011;30723;51.206;3.326;2022-10-16T10:19:48;23.00;;;11.07;;
44989;SDS011;30723;51.206;3.326;2022-10-16T10:27:39;34.42;;;21.27;;
44989;SDS011;30723;51.206;3.326;2022-10-16T10:30:15;19.83;;;10.82;;
44989;SDS011;30723;51.206;3.326;2022-10-16T10:33:00;22.40;;;13.10;;
44989;SDS011;30723;51.206;3.326;2022-10-16T10:35:51;12.57;;;2.85;;
44989;SDS011;30723;51.206;3.326;2022-10-16T10:46:39;11.65;;;2.53;;
44989;SDS011;30723;51.206;3.326;2022-10-16T10:51:53;17.63;;;5.65;;
44989;SDS011;30723;51.206;3.326;2022-10-16T10:57:01;16.70;;;2.97;;
44989;SDS011;30723;51.206;3.326;2022-10-16T11:08:17;21.70;;;8.15;;
44989;SDS011;30723;51.206;3.326;2022-10-16T11:10:51;12.50;;;2.22;;
44989;SDS011;30723;51.206;3.326;2022-10-16T11:15:58;11.25;;;2.22;;
44989;SDS011;30723;51.206;3.326;2022-10-16T11:18:33;12.18;;;2.88;;
44989;SDS011;30723;51.206;3.326;2022-10-16T11:21:09;12.85;;;1.95;;
44989;SDS011;30723;51.206;3.326;2022-10-16T11:26:14;10.98;;;2.47;;
44989;SDS011;30723;51.206;3.326;2022-10-16T11:28:47;10.02;;;2.28;;
44989;SDS011;30723;51.206;3.326;2022-10-16T11:36:47;6.75;;;1.80;;
44989;SDS011;30723;51.206;3.326;2022-10-16T11:39:27;9.80;;;2.08;;
44989;SDS011;30723;51.206;3.326;2022-10-16T11:41:56;7.03;;;1.73;;
44989;SDS011;30723;51.206;3.326;2022-10-16T11:55:41;8.10;;;2.05;;
44989;SDS011;30723;51.206;3.326;2022-10-16T12:06:26;8.63;;;2.25;;
44989;SDS011;30723;51.206;3.326;2022-10-16T12:09:22;11.43;;;2.33;;
44989;SDS011;30723;51.206;3.326;2022-10-16T12:11:51;14.75;;;2.60;;
44989;SDS011;30723;51.206;3.326;2022-10-16T12:14:19;9.82;;;1.95;;
44989;SDS011;30723;51.206;3.326;2022-10-16T12:17:03;9.77;;;2.35;;
44989;SDS011;30723;51.206;3.326;2022-10-16T12:22:54;9.07;;;2.00;;
44989;SDS011;30723;51.206;3.326;2022-10-16T12:28:03;7.70;;;1.90;;
44989;SDS011;30723;51.206;3.326;2022-10-16T12:30:32;5.90;;;2.00;;
44989;SDS011;30723;51.206;3.326;2022-10-16T12:33:03;9.35;;;1.83;;
44989;SDS011;30723;51.206;3.326;2022-10-16T12:35:35;9.27;;;2.90;;
44989;SDS011;30723;51.206;3.326;2022-10-16T12:41:23;5.40;;;1.83;;
44989;SDS011;30723;51.206;3.326;2022-10-16T12:43:52;10.50;;;2.70;;
44989;SDS011;30723;51.206;3.326;2022-10-16T12:48:43;11.00;;;3.60;;
44989;SDS011;30723;51.206;3.326;2022-10-16T12:53:37;12.52;;;2.03;;
44989;SDS011;30723;51.206;3.326;2022-10-16T12:56:14;8.07;;;2.00;;
44989;SDS011;30723;51.206;3.326;2022-10-16T13:03:59;11.57;;;2.63;;
44989;SDS011;30723;51.206;3.326;2022-10-16T13:06:43;11.30;;;1.98;;
44989;SDS011;30723;51.206;3.326;2022-10-16T13:17:04;8.55;;;2.42;;
44989;SDS011;30723;51.206;3.326;2022-10-16T13:27:39;9.85;;;2.15;;
44989;SDS011;30723;51.206;3.326;2022-10-16T13:30:19;9.23;;;2.13;;
44989;SDS011;30723;51.206;3.326;2022-10-16T13:32:49;11.82;;;1.90;;
44989;SDS011;30723;51.206;3.326;2022-10-16T13:35:21;10.05;;;2.70;;
44989;SDS011;30723;51.206;3.326;2022-10-16T13:37:49;8.90;;;2.10;;
44989;SDS011;30723;51.206;3.326;2022-10-16T13:40:23;9.20;;;1.63;;
44989;SDS011;30723;51.206;3.326;2022-10-16T13:42:50;7.90;;;2.00;;
44989;SDS011;30723;51.206;3.326;2022-10-16T13:45:22;8.90;;;2.00;;
44989;SDS011;30723;51.206;3.326;2022-10-16T13:48:00;6.55;;;1.92;;
44989;SDS011;30723;51.206;3.326;2022-10-16T13:50:27;7.68;;;1.60;;
44989;SDS011;30723;51.206;3.326;2022-10-16T13:53:02;4.75;;;1.30;;
44989;SDS011;30723;51.206;3.326;2022-10-16T13:55:29;12.43;;;1.60;;
44989;SDS011;30723;51.206;3.326;2022-10-16T13:58:12;8.32;;;1.98;;
44989;SDS011;30723;51.206;3.326;2022-10-16T14:00:39;9.23;;;1.80;;
44989;SDS011;30723;51.206;3.326;2022-10-16T14:03:17;7.32;;;1.52;;
44989;SDS011;30723;51.206;3.326;2022-10-16T14:05:52;9.70;;;1.70;;
44989;SDS011;30723;51.206;3.326;2022-10-16T14:08:20;8.55;;;2.03;;
44989;SDS011;30723;51.206;3.326;2022-10-16T14:10:48;5.90;;;1.63;;
44989;SDS011;30723;51.206;3.326;2022-10-16T14:13:43;5.60;;;1.50;;
44989;SDS011;30723;51.206;3.326;2022-10-16T14:16:15;4.20;;;1.38;;
44989;SDS011;30723;51.206;3.326;2022-10-16T14:18:44;5.63;;;1.33;;
44989;SDS011;30723;51.206;3.326;2022-10-16T14:21:15;8.05;;;1.60;;
44989;SDS011;30723;51.206;3.326;2022-10-16T14:23:42;7.93;;;1.30;;
44989;SDS011;30723;51.206;3.326;2022-10-16T14:28:34;4.95;;;1.42;;
44989;SDS011;30723;51.206;3.326;2022-10-16T14:34:05;3.45;;;1.30;;
44989;SDS011;30723;51.206;3.326;2022-10-16T14:37:05;7.15;;;1.30;;
44989;SDS011;30723;51.206;3.326;2022-10-16T14:39:40;7.80;;;1.20;;
44989;SDS011;30723;51.206;3.326;2022-10-16T14:42:20;7.97;;;1.38;;
44989;SDS011;30723;51.206;3.326;2022-10-16T14:44:50;4.40;;;1.17;;
44989;SDS011;30723;51.206;3.326;2022-10-16T14:47:21;5.90;;;1.03;;
44989;SDS011;30723;51.206;3.326;2022-10-16T14:49:51;4.32;;;1.25;;
44989;SDS011;30723;51.206;3.326;2022-10-16T14:52:20;5.25;;;1.10;;
44989;SDS011;30723;51.206;3.326;2022-10-16T14:54:49;5.07;;;1.30;;
44989;SDS011;30723;51.206;3.326;2022-10-16T14:57:18;5.88;;;1.98;;
44989;SDS011;30723;51.206;3.326;2022-10-16T15:04:40;4.65;;;1.63;;
44989;SDS011;30723;51.206;3.326;2022-10-16T15:07:07;16.00;;;3.40;;
44989;SDS011;30723;51.206;3.326;2022-10-16T15:09:33;22.02;;;11.93;;
44989;SDS011;30723;51.206;3.326;2022-10-16T15:11:59;21.05;;;8.55;;
44989;SDS011;30723;51.206;3.326;2022-10-16T15:14:25;11.95;;;5.13;;
44989;SDS011;30723;51.206;3.326;2022-10-16T15:16:50;21.30;;;10.00;;
44989;SDS011;30723;51.206;3.326;2022-10-16T15:19:16;7.30;;;2.55;;
44989;SDS011;30723;51.206;3.326;2022-10-16T15:21:42;9.02;;;3.22;;
44989;SDS011;30723;51.206;3.326;2022-10-16T15:24:09;6.47;;;2.50;;
44989;SDS011;30723;51.206;3.326;2022-10-16T15:26:38;5.13;;;3.40;;
44989;SDS011;30723;51.206;3.326;2022-10-16T15:29:04;6.88;;;2.40;;
44989;SDS011;30723;51.206;3.326;2022-10-16T15:31:30;31.20;;;21.13;;
44989;SDS011;30723;51.206;3.326;2022-10-16T15:33:56;14.93;;;9.60;;
44989;SDS011;30723;51.206;3.326;2022-10-16T15:36:30;12.23;;;5.95;;
44989;SDS011;30723;51.206;3.326;2022-10-16T15:39:15;39.95;;;27.05;;
44989;SDS011;30723;51.206;3.326;2022-10-16T15:41:43;19.75;;;13.93;;
44989;SDS011;30723;51.206;3.326;2022-10-16T15:44:15;9.90;;;5.68;;
44989;SDS011;30723;51.206;3.326;2022-10-16T15:46:42;12.57;;;7.63;;
44989;SDS011;30723;51.206;3.326;2022-10-16T15:49:08;14.32;;;8.40;;
44989;SDS011;30723;51.206;3.326;2022-10-16T15:51:37;17.15;;;10.73;;
44989;SDS011;30723;51.206;3.326;2022-10-16T15:54:04;4.65;;;2.65;;
44989;SDS011;30723;51.206;3.326;2022-10-16T15:56:30;9.75;;;2.03;;
44989;SDS011;30723;51.206;3.326;2022-10-16T15:58:58;7.38;;;1.60;;
44989;SDS011;30723;51.206;3.326;2022-10-16T16:01:25;6.45;;;1.40;;
44989;SDS011;30723;51.206;3.326;2022-10-16T16:03:55;2.70;;;1.30;;
44989;SDS011;30723;51.206;3.326;2022-10-16T16:06:21;5.00;;;1.52;;
44989;SDS011;30723;51.206;3.326;2022-10-16T16:08:49;4.40;;;1.65;;
44989;SDS011;30723;51.206;3.326;2022-10-16T16:11:16;9.63;;;2.25;;
44989;SDS011;30723;51.206;3.326;2022-10-16T16:13:42;6.95;;;1.83;;
44989;SDS011;30723;51.206;3.326;2022-10-16T16:16:09;8.75;;;1.60;;
44989;SDS011;30723;51.206;3.326;2022-10-16T16:18:37;5.82;;;1.85;;
44989;SDS011;30723;51.206;3.326;2022-10-16T16:21:03;3.08;;;1.73;;
44989;SDS011;30723;51.206;3.326;2022-10-16T16:23:30;3.92;;;1.80;;
44989;SDS011;30723;51.206;3.326;2022-10-16T16:26:06;6.22;;;2.15;;
44989;SDS011;30723;51.206;3.326;2022-10-16T16:28:41;6.63;;;3.50;;
44989;SDS011;30723;51.206;3.326;2022-10-16T16:31:07;9.50;;;2.08;;
44989;SDS011;30723;51.206;3.326;2022-10-16T16:33:34;7.25;;;4.00;;
44989;SDS011;30723;51.206;3.326;2022-10-16T16:36:00;7.38;;;3.30;;
44989;SDS011;30723;51.206;3.326;2022-10-16T16:38:28;6.57;;;2.78;;
44989;SDS011;30723;51.206;3.326;2022-10-16T16:40:54;9.00;;;3.10;;
44989;SDS011;30723;51.206;3.326;2022-10-16T16:43:24;7.75;;;3.13;;
44989;SDS011;30723;51.206;3.326;2022-10-16T16:45:51;6.28;;;2.88;;
44989;SDS011;30723;51.206;3.326;2022-10-16T16:48:17;10.93;;;2.63;;
44989;SDS011;30723;51.206;3.326;2022-10-16T16:50:43;5.47;;;2.33;;
44989;SDS011;30723;51.206;3.326;2022-10-16T16:53:09;9.10;;;2.95;;
44989;SDS011;30723;51.206;3.326;2022-10-16T16:55:35;10.85;;;3.30;;
44989;SDS011;30723;51.206;3.326;2022-10-16T16:58:00;6.82;;;3.35;;
44989;SDS011;30723;51.206;3.326;2022-10-16T17:00:28;7.15;;;2.78;;
44989;SDS011;30723;51.206;3.326;2022-10-16T17:02:53;6.45;;;2.28;;
44989;SDS011;30723;51.206;3.326;2022-10-16T17:05:19;10.45;;;3.10;;
44989;SDS011;30723;51.206;3.326;2022-10-16T17:07:45;8.60;;;3.95;;
44989;SDS011;30723;51.206;3.326;2022-10-16T17:10:10;13.00;;;5.50;;
44989;SDS011;30723;51.206;3.326;2022-10-16T17:12:36;12.88;;;7.68;;
44989;SDS011;30723;51.206;3.326;2022-10-16T17:15:02;17.85;;;12.80;;
44989;SDS011;30723;51.206;3.326;2022-10-16T17:17:28;15.07;;;9.73;;
44989;SDS011;30723;51.206;3.326;2022-10-16T17:19:54;15.38;;;10.00;;
44989;SDS011;30723;51.206;3.326;2022-10-16T17:22:20;19.77;;;11.57;;
44989;SDS011;30723;51.206;3.326;2022-10-16T17:24:49;27.95;;;17.27;;
44989;SDS011;30723;51.206;3.326;2022-10-16T17:27:16;19.90;;;12.43;;